Time;durP1;ratioP1;P1;durP2;ratioP2;P2;SDS_P1;SDS_P2;PMS_P1;PMS_P2;Temp;Humidity;BMP_temperature;BMP_pressure;BME280_temperature;BME280_humidity;BME280_pressure;Samples;Min_cycle;Max_cycle;Signal;HPM_P1;HPM_P2
2023/06/29 00:01:45;;;;;;;28.27;16.05;;;;;;;19.47;100.00;101593.19;5013023;28;20068;-76
2023/06/29 00:04:10;;;;;;;25.90;15.75;;;;;;;19.48;100.00;101594.88;5019644;28;20026;-78
2023/06/29 00:06:38;;;;;;;30.20;15.90;;;;;;;19.48;100.00;101596.75;5019942;28;20056;-77
2023/06/29 00:09:04;;;;;;;27.25;15.15;;;;;;;19.51;100.00;101596.34;5020973;28;20038;-78
2023/06/29 00:11:30;;;;;;;27.10;15.07;;;;;;;19.51;100.00;101601.78;5015475;28;20041;-79
2023/06/29 00:13:55;;;;;;;32.35;15.40;;;;;;;19.50;100.00;101594.66;5019186;28;20037;-77
2023/06/29 00:16:22;;;;;;;26.23;16.05;;;;;;;19.44;100.00;101601.84;5001167;28;20079;-77
2023/06/29 00:18:49;;;;;;;25.77;14.97;;;;;;;19.39;100.00;101598.94;5018143;28;20033;-78
2023/06/29 00:21:15;;;;;;;27.70;15.00;;;;;;;19.41;100.00;101601.47;5016663;28;20041;-77
2023/06/29 00:23:40;;;;;;;29.60;15.70;;;;;;;19.37;100.00;101611.13;5016823;28;20030;-79
2023/06/29 00:26:06;;;;;;;31.65;15.52;;;;;;;19.38;100.00;101604.59;5016246;28;20037;-77
2023/06/29 00:28:31;;;;;;;26.92;15.65;;;;;;;19.37;100.00;101609.22;5015766;28;20129;-78
2023/06/29 00:30:57;;;;;;;26.63;15.27;;;;;;;19.36;100.00;101601.28;5016954;28;20535;-78
2023/06/29 00:33:22;;;;;;;25.67;14.43;;;;;;;19.34;100.00;101598.75;5016327;28;20028;-77
2023/06/29 00:35:47;;;;;;;25.98;15.27;;;;;;;19.36;100.00;101593.94;5015719;28;20069;-77
2023/06/29 00:38:13;;;;;;;31.05;16.35;;;;;;;19.39;100.00;101592.66;5015427;28;20034;-78
2023/06/29 00:40:38;;;;;;;30.25;16.08;;;;;;;19.36;100.00;101591.19;5015544;28;20017;-77
2023/06/29 00:43:03;;;;;;;31.05;15.68;;;;;;;19.35;100.00;101594.97;5015734;28;20037;-77
2023/06/29 00:45:29;;;;;;;35.00;15.65;;;;;;;19.36;100.00;101587.63;5002977;28;20046;-77
2023/06/29 00:47:54;;;;;;;28.00;14.75;;;;;;;19.35;100.00;101580.50;5012460;28;20026;-77
2023/06/29 00:50:21;;;;;;;31.35;16.15;;;;;;;19.41;100.00;101585.06;5022548;28;20036;-77
2023/06/29 00:52:47;;;;;;;29.20;16.10;;;;;;;19.41;100.00;101585.91;5020927;28;20412;-77
2023/06/29 00:55:12;;;;;;;33.05;15.52;;;;;;;19.45;100.00;101580.81;5016169;28;20113;-77
2023/06/29 00:57:39;;;;;;;35.83;16.77;;;;;;;19.45;100.00;101570.72;4997479;28;20196;-78
2023/06/29 01:00:10;;;;;;;30.98;16.08;;;;;;;19.41;100.00;101574.16;5014827;28;20072;-78
2023/06/29 01:02:40;;;;;;;37.75;17.30;;;;;;;19.38;100.00;101567.25;5015076;28;20014;-77
2023/06/29 01:05:09;;;;;;;32.80;16.73;;;;;;;19.39;100.00;101565.34;4998676;28;20104;-78
2023/06/29 01:07:56;;;;;;;31.83;16.63;;;;;;;19.38;100.00;101580.91;4996542;28;20109;-78
2023/06/29 01:10:24;;;;;;;37.38;17.85;;;;;;;19.34;100.00;101574.19;5011942;28;20038;-77
2023/06/29 01:12:52;;;;;;;33.50;16.63;;;;;;;19.37;100.00;101581.09;5014519;28;20025;-77
2023/06/29 01:15:18;;;;;;;32.55;16.80;;;;;;;19.40;100.00;101578.75;4997491;28;20050;-79
2023/06/29 01:17:45;;;;;;;26.63;15.03;;;;;;;19.42;100.00;101576.66;5014765;28;20477;-79
2023/06/29 01:20:11;;;;;;;33.65;17.45;;;;;;;19.42;100.00;101568.47;5014621;28;20492;-77
2023/06/29 01:22:41;;;;;;;35.40;17.27;;;;;;;19.44;100.00;101569.06;4998571;28;20481;-78
2023/06/29 01:25:07;;;;;;;33.75;17.10;;;;;;;19.47;100.00;101568.63;4992049;28;20040;-77
2023/06/29 01:27:33;;;;;;;31.35;17.77;;;;;;;19.46;100.00;101571.59;4995370;28;20026;-76
2023/06/29 01:30:01;;;;;;;40.75;18.92;;;;;;;19.36;100.00;101572.09;4998857;28;20022;-78
2023/06/29 01:32:35;;;;;;;40.17;19.88;;;;;;;19.32;100.00;101576.31;5019680;28;20416;-79
2023/06/29 01:35:02;;;;;;;31.85;18.73;;;;;;;19.32;100.00;101568.13;5017598;28;20049;-78
2023/06/29 01:37:30;;;;;;;34.80;18.30;;;;;;;19.26;100.00;101574.47;5016849;28;20083;-78
2023/06/29 01:40:00;;;;;;;39.13;19.60;;;;;;;19.25;100.00;101570.09;5011985;28;20477;-78
2023/06/29 01:42:26;;;;;;;34.60;19.25;;;;;;;19.19;100.00;101565.50;4996372;28;20037;-77
2023/06/29 01:44:54;;;;;;;40.45;19.55;;;;;;;19.15;100.00;101567.84;4996330;28;20029;-77
2023/06/29 01:47:20;;;;;;;38.92;19.48;;;;;;;19.17;100.00;101571.19;5014156;28;20048;-78
2023/06/29 01:49:45;;;;;;;40.53;19.70;;;;;;;19.16;100.00;101565.94;4996166;28;20334;-76
2023/06/29 01:52:11;;;;;;;36.55;19.98;;;;;;;19.10;100.00;101564.13;4997733;28;20033;-76
2023/06/29 01:54:36;;;;;;;35.90;19.33;;;;;;;19.11;100.00;101566.59;5016306;28;20030;-77
2023/06/29 01:57:05;;;;;;;36.20;19.90;;;;;;;19.14;100.00;101562.59;4998270;28;20053;-77
2023/06/29 01:59:30;;;;;;;32.88;18.52;;;;;;;19.13;100.00;101569.13;5013560;28;20038;-78
2023/06/29 02:01:55;;;;;;;43.83;19.83;;;;;;;19.11;100.00;101573.97;5019381;28;20033;-77
2023/06/29 02:04:21;;;;;;;39.13;21.35;;;;;;;19.05;100.00;101564.75;5018853;28;20056;-76
2023/06/29 02:06:46;;;;;;;39.67;20.98;;;;;;;19.08;100.00;101565.16;5002573;28;20048;-79
2023/06/29 02:09:11;;;;;;;38.35;21.42;;;;;;;19.02;100.00;101566.03;5020385;28;20081;-76
2023/06/29 02:11:37;;;;;;;41.85;21.20;;;;;;;19.02;100.00;101560.59;5020781;28;20112;-77
2023/06/29 02:14:02;;;;;;;46.03;21.42;;;;;;;19.05;100.00;101559.31;5018132;28;20030;-76
2023/06/29 02:16:28;;;;;;;34.00;19.98;;;;;;;19.07;100.00;101563.50;5016678;28;20033;-77
2023/06/29 02:18:53;;;;;;;46.33;21.90;;;;;;;19.06;100.00;101560.97;5000783;28;20441;-76
2023/06/29 02:21:20;;;;;;;38.83;20.90;;;;;;;19.05;100.00;101553.84;5018693;28;20049;-78
2023/06/29 02:23:45;;;;;;;43.47;22.25;;;;;;;19.08;100.00;101554.22;4995659;28;20045;-77
2023/06/29 02:26:10;;;;;;;42.53;21.80;;;;;;;19.02;100.00;101544.22;5015234;28;20034;-75
2023/06/29 02:28:36;;;;;;;45.30;22.88;;;;;;;19.01;100.00;101544.41;5016233;28;20670;-76
2023/06/29 02:31:01;;;;;;;41.20;22.50;;;;;;;19.02;100.00;101543.38;5016330;28;20040;-77
2023/06/29 02:33:27;;;;;;;46.70;24.35;;;;;;;18.96;100.00;101539.66;5020094;28;20030;-76
2023/06/29 02:35:52;;;;;;;48.05;24.30;;;;;;;18.95;100.00;101542.59;5019795;28;20112;-77
2023/06/29 02:38:18;;;;;;;44.88;24.58;;;;;;;18.95;100.00;101537.97;5016044;28;20434;-76
2023/06/29 02:40:44;;;;;;;46.72;24.42;;;;;;;18.96;100.00;101539.66;5014557;28;20030;-78
2023/06/29 02:43:10;;;;;;;44.63;24.50;;;;;;;19.00;100.00;101540.88;4997131;28;20120;-76
2023/06/29 02:45:35;;;;;;;47.35;24.73;;;;;;;19.01;100.00;101533.50;5018867;28;20057;-76
2023/06/29 02:48:00;;;;;;;51.15;25.52;;;;;;;18.99;100.00;101539.22;5014225;28;20026;-76
2023/06/29 02:50:26;;;;;;;47.50;25.00;;;;;;;18.99;100.00;101535.66;5013888;28;20530;-76
2023/06/29 02:52:52;;;;;;;48.05;24.05;;;;;;;18.93;100.00;101526.47;4998932;28;20037;-77
2023/06/29 02:55:21;;;;;;;42.75;21.73;;;;;;;18.93;100.00;101518.28;4997276;28;20045;-77
2023/06/29 02:57:46;;;;;;;43.63;23.58;;;;;;;18.90;100.00;101501.50;5011558;28;20050;-77
2023/06/29 03:00:12;;;;;;;42.13;21.65;;;;;;;18.93;100.00;101501.91;5014619;28;20039;-76
2023/06/29 03:02:38;;;;;;;39.50;21.67;;;;;;;18.90;100.00;101496.88;5015128;28;20034;-76
2023/06/29 03:05:03;;;;;;;39.10;21.30;;;;;;;18.91;100.00;101492.28;4995166;28;20030;-76
2023/06/29 03:07:29;;;;;;;38.45;20.70;;;;;;;18.97;100.00;101480.47;5012758;28;20038;-76
2023/06/29 03:09:54;;;;;;;39.13;21.88;;;;;;;19.01;100.00;101481.69;5013947;28;20473;-77
2023/06/29 03:12:21;;;;;;;39.00;21.73;;;;;;;18.99;100.00;101473.75;4995978;28;20037;-77
2023/06/29 03:14:46;;;;;;;39.47;21.10;;;;;;;19.00;100.00;101474.56;5014246;28;20026;-77
2023/06/29 03:17:14;;;;;;;42.83;22.20;;;;;;;18.98;100.00;101472.03;5015025;28;20476;-77
2023/06/29 03:19:39;;;;;;;42.53;22.30;;;;;;;18.96;100.00;101466.00;5014375;28;20038;-77
2023/06/29 03:22:04;;;;;;;37.80;21.77;;;;;;;18.96;100.00;101468.72;5014952;28;20399;-77
2023/06/29 03:24:30;;;;;;;40.33;21.35;;;;;;;18.94;100.00;101468.13;5017550;28;20053;-76
2023/06/29 03:26:55;;;;;;;38.50;21.25;;;;;;;18.95;100.00;101472.50;5011672;28;20037;-76
2023/06/29 03:29:20;;;;;;;37.25;21.88;;;;;;;18.94;100.00;101475.47;4980564;28;20075;-77
2023/06/29 03:31:46;;;;;;;37.45;21.45;;;;;;;18.95;100.00;101468.94;5003989;28;20505;-78
2023/06/29 03:34:11;;;;;;;42.63;20.73;;;;;;;18.92;100.00;101464.75;5006335;28;20058;-78
2023/06/29 03:36:37;;;;;;;38.47;21.38;;;;;;;18.90;100.00;101469.59;5014837;28;20073;-78
2023/06/29 03:39:03;;;;;;;38.10;22.35;;;;;;;18.88;100.00;101466.28;5000039;28;20366;-78
2023/06/29 03:41:29;;;;;;;36.28;21.55;;;;;;;18.88;100.00;101460.81;5014274;28;20102;-76
2023/06/29 03:43:55;;;;;;;42.00;21.25;;;;;;;18.88;100.00;101455.38;5008591;28;20037;-77
2023/06/29 03:46:20;;;;;;;35.88;20.73;;;;;;;18.86;100.00;101461.03;5009618;28;20026;-78
2023/06/29 03:48:46;;;;;;;43.35;22.80;;;;;;;18.82;100.00;101457.06;5008735;28;20536;-77
2023/06/29 03:51:11;;;;;;;36.63;20.67;;;;;;;18.85;100.00;101453.91;5012729;28;20030;-77
2023/06/29 03:53:36;;;;;;;33.40;19.67;;;;;;;18.81;100.00;101460.03;5008213;28;20081;-78
2023/06/29 03:56:02;;;;;;;37.17;18.40;;;;;;;18.84;100.00;101457.69;5011380;28;20046;-77
2023/06/29 03:58:27;;;;;;;40.65;20.45;;;;;;;18.81;100.00;101460.03;5013282;28;20022;-78
2023/06/29 04:00:53;;;;;;;38.35;21.17;;;;;;;18.75;100.00;101456.31;4997351;28;20162;-79
2023/06/29 04:03:18;;;;;;;35.78;19.25;;;;;;;18.77;100.00;101458.78;5013887;28;20061;-78
2023/06/29 04:05:43;;;;;;;34.72;19.27;;;;;;;18.80;100.00;101450.16;5010697;28;20041;-77
2023/06/29 04:08:09;;;;;;;34.05;19.20;;;;;;;18.80;100.00;101447.44;5014315;28;20022;-77
2023/06/29 04:10:35;;;;;;;33.63;19.58;;;;;;;18.76;100.00;101448.97;5013011;28;20033;-79
2023/06/29 04:13:01;;;;;;;37.20;19.02;;;;;;;18.73;100.00;101450.19;5011905;28;20119;-77
2023/06/29 04:15:26;;;;;;;35.50;19.77;;;;;;;18.73;100.00;101441.19;4991779;28;20084;-76
2023/06/29 04:17:52;;;;;;;33.50;19.52;;;;;;;18.76;100.00;101441.59;5009218;28;20469;-76
2023/06/29 04:20:17;;;;;;;34.05;19.17;;;;;;;18.80;100.00;101441.97;5005933;28;20026;-77
2023/06/29 04:22:43;;;;;;;34.13;20.02;;;;;;;18.74;100.00;101437.41;4994814;28;20121;-78
2023/06/29 04:25:09;;;;;;;36.88;20.25;;;;;;;18.70;100.00;101437.00;5012329;28;20072;-78
2023/06/29 04:27:34;;;;;;;36.45;19.48;;;;;;;18.70;100.00;101436.19;5010888;28;20069;-77
2023/06/29 04:30:00;;;;;;;33.53;19.25;;;;;;;18.71;100.00;101438.66;5008569;28;20033;-77
2023/06/29 04:32:26;;;;;;;36.40;20.13;;;;;;;18.74;100.00;101437.41;5011981;28;20025;-78
2023/06/29 04:34:51;;;;;;;33.63;19.23;;;;;;;18.75;100.00;101439.13;5017985;28;20447;-78
2023/06/29 04:37:17;;;;;;;33.75;19.35;;;;;;;18.79;100.00;101434.88;5001772;28;20107;-77
2023/06/29 04:39:42;;;;;;;36.92;19.52;;;;;;;18.77;100.00;101428.78;5017324;28;20216;-78
2023/06/29 04:42:13;;;;;;;34.78;19.88;;;;;;;18.78;100.00;101427.75;5015480;28;20113;-78
2023/06/29 04:44:41;;;;;;;33.97;19.40;;;;;;;18.80;100.00;101425.63;4994282;28;20482;-78
2023/06/29 04:47:06;;;;;;;34.85;20.27;;;;;;;18.81;100.00;101430.03;5020425;28;20026;-78
2023/06/29 04:49:37;;;;;;;32.72;19.67;;;;;;;18.83;100.00;101428.75;4998521;28;20049;-79
2023/06/29 04:52:03;;;;;;;35.05;19.48;;;;;;;18.81;100.00;101430.88;5014988;28;20551;-77
2023/06/29 04:54:29;;;;;;;36.47;19.02;;;;;;;18.84;100.00;101424.97;5006958;28;20105;-78
2023/06/29 04:56:54;;;;;;;37.08;19.30;;;;;;;18.89;100.00;101429.75;5000561;28;20054;-79
2023/06/29 04:59:24;;;;;;;39.80;21.35;;;;;;;18.90;100.00;101420.50;5006803;28;20040;-78
2023/06/29 05:01:50;;;;;;;35.30;21.65;;;;;;;18.91;100.00;101416.75;5013086;28;20034;-76
2023/06/29 05:04:15;;;;;;;32.35;20.00;;;;;;;18.99;100.00;101413.72;5014399;28;20026;-78
2023/06/29 05:06:41;;;;;;;37.72;20.98;;;;;;;19.05;100.00;101418.28;5014714;28;20033;-78
2023/06/29 05:09:06;;;;;;;37.17;22.02;;;;;;;18.98;100.00;101412.03;5018437;28;20026;-78
2023/06/29 05:11:32;;;;;;;41.72;24.60;;;;;;;18.90;100.00;101414.22;5003007;28;20032;-81
2023/06/29 05:13:58;;;;;;;42.92;23.67;;;;;;;18.94;100.00;101415.47;5022130;28;20104;-79
2023/06/29 05:16:23;;;;;;;46.85;24.15;;;;;;;18.87;100.00;101407.31;5021307;28;20057;-78
2023/06/29 05:18:49;;;;;;;43.90;23.33;;;;;;;18.94;100.00;101421.75;5019166;28;20034;-78
2023/06/29 05:21:14;;;;;;;43.22;24.45;;;;;;;18.95;100.00;101422.56;5038912;28;20038;-80
2023/06/29 05:23:40;;;;;;;43.83;23.65;;;;;;;18.88;100.00;101417.19;5024544;28;20038;-77
2023/06/29 05:26:05;;;;;;;47.40;24.35;;;;;;;18.83;100.00;101422.47;5020213;28;20033;-78
2023/06/29 05:28:31;;;;;;;44.08;26.27;;;;;;;18.75;100.00;101417.31;5022290;28;20022;-78
2023/06/29 05:30:57;;;;;;;46.00;25.25;;;;;;;18.76;100.00;101418.97;5020147;28;20084;-78
2023/06/29 05:33:22;;;;;;;46.45;26.05;;;;;;;18.77;100.00;101417.88;5000918;28;20037;-78
2023/06/29 05:35:48;;;;;;;43.95;24.92;;;;;;;18.79;100.00;101411.16;5001364;28;20441;-78
2023/06/29 05:38:13;;;;;;;43.42;24.48;;;;;;;18.84;100.00;101416.78;5001889;28;20065;-79
2023/06/29 05:40:38;;;;;;;46.63;25.45;;;;;;;18.84;100.00;101429.59;5020696;28;20060;-78
2023/06/29 05:43:04;;;;;;;43.83;26.10;;;;;;;18.77;100.00;101415.16;5000725;28;20034;-77
2023/06/29 05:45:29;;;;;;;52.20;26.60;;;;;;;18.70;100.00;101430.72;5022236;28;20041;-80
2023/06/29 05:47:55;;;;;;;48.78;27.65;;;;;;;18.70;100.00;101428.00;5022523;28;20152;-79
2023/06/29 05:50:21;;;;;;;49.40;26.92;;;;;;;18.73;100.00;101427.56;5022299;28;20018;-79
2023/06/29 05:52:46;;;;;;;48.60;26.38;;;;;;;18.81;100.00;101421.84;5018288;28;20465;-78
2023/06/29 05:55:12;;;;;;;53.35;29.13;;;;;;;18.85;100.00;101406.69;5019616;28;20033;-79
2023/06/29 05:57:38;;;;;;;51.45;28.27;;;;;;;18.89;100.00;101418.84;5022441;28;20046;-77
2023/06/29 06:00:09;;;;;;;49.20;26.35;;;;;;;18.95;100.00;101417.94;5022793;28;20029;-78
2023/06/29 06:02:36;;;;;;;49.85;26.77;;;;;;;19.06;100.00;101417.22;5021664;28;20097;-77
2023/06/29 06:05:01;;;;;;;50.65;27.38;;;;;;;18.96;100.00;101414.19;5022228;28;20038;-79
2023/06/29 06:07:30;;;;;;;49.42;27.73;;;;;;;18.91;100.00;101416.75;5021472;28;20350;-79
2023/06/29 06:09:56;;;;;;;53.78;28.60;;;;;;;18.85;100.00;101423.94;5020897;28;20038;-79
2023/06/29 06:12:22;;;;;;;52.35;27.83;;;;;;;18.80;100.00;101420.16;5003345;28;20036;-79
2023/06/29 06:14:47;;;;;;;51.03;27.00;;;;;;;18.85;100.00;101420.34;5020991;28;20022;-78
2023/06/29 06:17:13;;;;;;;46.83;26.70;;;;;;;18.89;100.00;101421.56;5022742;28;20497;-78
2023/06/29 06:19:38;;;;;;;51.60;27.30;;;;;;;18.87;100.00;101410.03;5020900;28;20038;-79
2023/06/29 06:22:04;;;;;;;53.45;28.80;;;;;;;18.77;100.00;101418.75;5004652;28;20033;-79
2023/06/29 06:24:29;;;;;;;57.08;29.38;;;;;;;18.74;100.00;101413.69;5019942;28;20038;-78
2023/06/29 06:26:55;;;;;;;47.85;28.27;;;;;;;18.76;100.00;101414.34;5019907;28;20022;-79
2023/06/29 06:29:20;;;;;;;54.05;28.60;;;;;;;18.78;100.00;101422.31;5020957;28;20036;-79
2023/06/29 06:31:45;;;;;;;63.30;30.00;;;;;;;18.80;100.00;101417.44;5001540;28;20030;-78
2023/06/29 06:34:11;;;;;;;55.50;29.23;;;;;;;18.72;100.00;101423.13;5020014;28;20393;-78
2023/06/29 06:36:37;;;;;;;59.53;28.42;;;;;;;18.78;100.00;101425.88;5037843;28;20377;-79
2023/06/29 06:39:02;;;;;;;59.60;30.90;;;;;;;18.86;100.00;101422.84;5004616;28;20029;-78
2023/06/29 06:41:28;;;;;;;60.53;29.13;;;;;;;18.96;100.00;101419.63;5023693;28;20056;-79
2023/06/29 06:43:53;;;;;;;54.08;30.00;;;;;;;18.86;100.00;101422.03;5023230;28;20022;-79
2023/06/29 06:46:18;;;;;;;57.72;28.40;;;;;;;18.93;100.00;101420.09;5004919;28;20081;-79
2023/06/29 06:48:44;;;;;;;61.13;31.27;;;;;;;18.95;100.00;101423.41;5020452;28;20026;-80
2023/06/29 06:51:09;;;;;;;56.88;29.45;;;;;;;19.02;100.00;101429.63;5021067;28;20085;-81
2023/06/29 06:53:34;;;;;;;58.40;28.80;;;;;;;19.03;100.00;101431.28;5022615;28;20652;-78
2023/06/29 06:56:00;;;;;;;53.83;28.52;;;;;;;19.14;100.00;101423.44;5018473;28;20093;-80
2023/06/29 06:58:25;;;;;;;59.00;29.58;;;;;;;19.15;100.00;101419.66;5018829;28;20026;-80
2023/06/29 07:00:51;;;;;;;58.55;29.55;;;;;;;19.13;100.00;101419.88;5016403;28;20030;-80
2023/06/29 07:03:18;;;;;;;55.72;30.30;;;;;;;19.15;100.00;101419.66;5022020;28;20033;-78
2023/06/29 07:05:44;;;;;;;53.88;28.95;;;;;;;19.17;100.00;101420.25;5022998;28;20069;-79
2023/06/29 07:08:09;;;;;;;60.05;29.38;;;;;;;19.19;100.00;101429.06;5020263;28;20070;-79
2023/06/29 07:10:34;;;;;;;55.78;28.88;;;;;;;19.27;100.00;101426.91;5034447;28;20033;-78
2023/06/29 07:13:00;;;;;;;56.40;29.15;;;;;;;19.30;100.00;101414.69;5044244;28;20024;-78
2023/06/29 07:15:25;;;;;;;46.78;26.08;;;;;;;19.42;100.00;101415.59;5036426;28;20052;-78
2023/06/29 07:17:50;;;;;;;49.78;27.67;;;;;;;19.47;100.00;101413.03;5024988;28;20026;-81
2023/06/29 07:20:16;;;;;;;45.88;26.00;;;;;;;19.40;100.00;101414.97;5019163;28;20034;-79
2023/06/29 07:22:41;;;;;;;44.83;26.15;;;;;;;19.46;100.00;101416.81;5023446;28;20112;-79
2023/06/29 07:25:07;;;;;;;49.35;26.38;;;;;;;19.62;100.00;101418.09;5019125;28;20064;-79
2023/06/29 07:27:33;;;;;;;45.45;25.60;;;;;;;19.62;100.00;101409.09;5021511;28;20444;-78
2023/06/29 07:29:58;;;;;;;44.28;25.70;;;;;;;19.64;100.00;101416.00;5020064;28;20026;-78
2023/06/29 07:32:23;;;;;;;48.72;26.00;;;;;;;19.84;100.00;101409.47;5018776;28;20690;-77
2023/06/29 07:34:49;;;;;;;44.55;23.67;;;;;;;19.87;100.00;101404.38;5013130;28;20039;-78
2023/06/29 07:37:14;;;;;;;41.80;22.80;;;;;;;20.05;100.00;101394.47;5017953;28;20034;-78
2023/06/29 07:39:39;;;;;;;45.50;22.08;;;;;;;20.26;100.00;101396.69;5018550;28;20033;-79
2023/06/29 07:42:05;;;;;;;43.78;21.40;;;;;;;20.53;100.00;101390.81;5017315;28;20026;-79
2023/06/29 07:44:30;;;;;;;36.45;18.83;;;;;;;20.72;100.00;101373.28;5013993;28;20062;-77
2023/06/29 07:46:56;;;;;;;33.60;19.15;;;;;;;20.89;100.00;101372.59;5018136;28;20471;-78
2023/06/29 07:49:21;;;;;;;36.65;17.90;;;;;;;21.00;100.00;101369.00;5017669;28;20109;-77
2023/06/29 07:51:47;;;;;;;36.70;16.45;;;;;;;21.01;100.00;101365.19;5016077;28;20025;-78
2023/06/29 07:54:13;;;;;;;27.10;16.38;;;;;;;20.86;100.00;101364.84;5016323;28;20503;-78
2023/06/29 07:56:38;;;;;;;33.35;17.05;;;;;;;20.70;100.00;101375.44;4999384;28;20083;-78
2023/06/29 07:59:04;;;;;;;30.05;17.08;;;;;;;20.48;100.00;101379.75;5017744;28;20034;-80
2023/06/29 08:01:29;;;;;;;34.08;17.17;;;;;;;20.49;100.00;101376.78;5016025;28;20034;-80
2023/06/29 08:03:54;;;;;;;27.92;17.33;;;;;;;20.34;100.00;101379.13;5023326;28;20149;-79
2023/06/29 08:06:20;;;;;;;27.52;15.27;;;;;;;20.33;100.00;101381.03;5015191;28;20054;-77
2023/06/29 08:08:45;;;;;;;29.80;15.75;;;;;;;20.15;100.00;101383.84;5004663;28;20549;-77
2023/06/29 08:11:14;;;;;;;28.92;14.93;;;;;;;20.17;100.00;101382.53;5023557;28;20393;-77
2023/06/29 08:13:40;;;;;;;33.58;16.15;;;;;;;20.22;100.00;101384.56;5023192;28;20037;-79
2023/06/29 08:16:06;;;;;;;26.42;15.23;;;;;;;20.14;100.00;101383.00;5024705;28;20034;-79
2023/06/29 08:18:31;;;;;;;30.65;16.13;;;;;;;20.20;100.00;101380.41;5022546;28;20033;-77
2023/06/29 08:20:57;;;;;;;30.45;16.02;;;;;;;20.14;100.00;101379.41;5024229;28;20050;-78
2023/06/29 08:23:22;;;;;;;30.95;16.58;;;;;;;20.28;100.00;101383.63;5028013;28;20089;-78
2023/06/29 08:25:48;;;;;;;29.60;17.08;;;;;;;20.17;100.00;101377.06;5025333;28;20029;-79
2023/06/29 08:28:14;;;;;;;27.23;17.73;;;;;;;20.13;100.00;101380.50;5023912;28;20094;-78
2023/06/29 08:30:39;;;;;;;28.30;16.38;;;;;;;20.05;100.00;101381.66;5025087;28;20057;-77
2023/06/29 08:33:04;;;;;;;28.27;15.88;;;;;;;19.99;100.00;101381.75;5025430;28;20018;-81
2023/06/29 08:35:30;;;;;;;29.80;16.27;;;;;;;19.94;100.00;101386.00;5027729;28;20407;-80
2023/06/29 08:37:55;;;;;;;30.60;17.00;;;;;;;19.85;100.00;101379.22;5024180;28;20077;-76
2023/06/29 08:40:22;;;;;;;33.85;17.90;;;;;;;19.84;100.00;101384.88;5023823;28;20042;-79
2023/06/29 08:42:47;;;;;;;32.90;17.27;;;;;;;19.84;100.00;101388.44;5024392;28;20029;-81
2023/06/29 08:45:13;;;;;;;38.78;18.60;;;;;;;19.92;100.00;101379.94;5005460;28;20113;-76
2023/06/29 08:47:38;;;;;;;32.10;17.38;;;;;;;20.12;100.00;101381.56;5021312;28;20026;-80
2023/06/29 08:50:05;;;;;;;28.15;16.35;;;;;;;20.25;100.00;101381.38;5027037;28;20080;-78
2023/06/29 08:52:34;;;;;;;26.63;16.47;;;;;;;20.24;100.00;101376.13;5008436;28;20105;-80
2023/06/29 08:55:02;;;;;;;28.08;16.92;;;;;;;20.33;100.00;101381.03;5026598;28;20038;-80
2023/06/29 08:57:29;;;;;;;29.67;16.70;;;;;;;20.25;100.00;101378.63;5007183;28;20109;-79
2023/06/29 08:59:55;;;;;;;28.42;16.23;;;;;;;20.30;100.00;101376.03;5026145;28;20104;-77
2023/06/29 09:02:21;;;;;;;29.67;16.85;;;;;;;20.27;100.00;101395.63;5023515;28;20094;-78
2023/06/29 09:04:46;;;;;;;28.83;17.38;;;;;;;20.19;100.00;101379.56;5005115;28;20030;-79
2023/06/29 09:07:14;;;;;;;29.15;17.35;;;;;;;20.05;100.00;101384.38;5021862;28;20030;-78
2023/06/29 09:09:39;;;;;;;29.90;16.70;;;;;;;20.38;100.00;101388.53;5021994;28;20099;-78
2023/06/29 09:12:05;;;;;;;27.73;16.63;;;;;;;20.49;100.00;101385.00;5005008;28;20082;-79
2023/06/29 09:14:35;;;;;;;30.30;17.52;;;;;;;20.45;100.00;101389.25;5007466;28;20071;-79
2023/06/29 09:17:01;;;;;;;29.05;16.50;;;;;;;20.56;100.00;101377.56;5005703;28;20068;-78
2023/06/29 09:19:27;;;;;;;28.27;16.40;;;;;;;20.53;100.00;101382.59;5006576;28;20049;-79
2023/06/29 09:21:53;;;;;;;29.23;15.40;;;;;;;20.72;100.00;101378.75;5023097;28;20535;-79
2023/06/29 09:24:19;;;;;;;28.67;16.70;;;;;;;20.70;100.00;101375.44;5021820;28;20022;-78
2023/06/29 09:26:49;;;;;;;31.58;17.45;;;;;;;20.47;100.00;101384.38;5021597;28;20034;-80
2023/06/29 09:29:16;;;;;;;26.10;15.77;;;;;;;20.54;100.00;101381.59;5022050;28;20036;-78
2023/06/29 09:31:53;;;;;;;26.10;15.60;;;;;;;20.67;100.00;101384.09;5022928;28;20034;-78
2023/06/29 09:34:20;;;;;;;27.92;15.50;;;;;;;20.80;100.00;101372.94;5022448;28;20052;-79
2023/06/29 09:36:47;;;;;;;24.50;14.10;;;;;;;20.87;100.00;101375.53;5023060;28;20029;-79
2023/06/29 09:39:12;;;;;;;23.50;14.30;;;;;;;20.87;100.00;101380.19;5005653;28;20051;-78
2023/06/29 09:41:47;;;;;;;25.33;14.02;;;;;;;20.90;100.00;101377.81;5022445;28;20085;-79
2023/06/29 09:44:16;;;;;;;24.02;13.25;;;;;;;20.85;100.00;101372.19;5023127;28;20026;-77
2023/06/29 09:46:42;;;;;;;25.00;13.85;;;;;;;20.92;100.00;101380.31;5023835;28;20068;-77
2023/06/29 09:49:11;;;;;;;23.70;13.02;;;;;;;20.89;100.00;101389.00;5021850;28;20042;-77
2023/06/29 09:51:36;;;;;;;28.60;13.88;;;;;;;20.74;100.00;101387.53;5006561;28;20026;-79
2023/06/29 09:54:02;;;;;;;24.77;13.07;;;;;;;20.71;100.00;101388.03;5025975;28;20491;-79
2023/06/29 09:56:35;;;;;;;25.83;13.52;;;;;;;20.66;100.00;101392.53;5024532;28;20073;-80
2023/06/29 09:59:01;;;;;;;21.70;13.02;;;;;;;20.52;100.00;101386.44;5006908;28;20102;-79
2023/06/29 10:01:28;;;;;;;24.60;13.43;;;;;;;20.45;100.00;101391.97;5023248;28;20033;-80
2023/06/29 10:03:54;;;;;;;22.90;12.68;;;;;;;20.30;100.00;101392.44;5020843;28;20098;-79
2023/06/29 10:06:23;;;;;;;29.50;13.85;;;;;;;20.34;100.00;101399.09;5011849;28;20045;-79
2023/06/29 10:08:53;;;;;;;22.40;14.35;;;;;;;20.50;100.00;101380.34;5007433;28;20032;-78
2023/06/29 10:11:20;;;;;;;25.17;14.00;;;;;;;20.87;100.00;101381.00;5006324;28;20069;-79
2023/06/29 10:13:48;;;;;;;22.15;13.18;;;;;;;21.47;100.00;101375.28;5022143;28;20049;-78
2023/06/29 10:16:15;;;;;;;31.02;13.90;;;;;;;21.78;100.00;101369.63;5005441;28;20025;-79
2023/06/29 10:18:41;;;;;;;25.35;13.43;;;;;;;21.64;100.00;101375.38;4990119;28;20030;-80
2023/06/29 10:21:07;;;;;;;27.77;13.93;;;;;;;21.82;100.00;101368.84;5023650;28;20030;-77
2023/06/29 10:23:33;;;;;;;25.15;13.75;;;;;;;21.91;100.00;101363.84;5022332;28;20025;-78
2023/06/29 10:26:00;;;;;;;21.77;13.90;;;;;;;21.91;100.00;101375.63;5006714;28;20030;-79
2023/06/29 10:28:25;;;;;;;26.67;13.93;;;;;;;21.88;100.00;101364.31;5017273;28;20475;-77
2023/06/29 10:30:57;;;;;;;25.08;13.75;;;;;;;21.74;100.00;101371.16;5021967;28;20108;-78
2023/06/29 10:33:23;;;;;;;26.08;14.80;;;;;;;21.83;100.00;101369.72;5004174;28;20034;-78
2023/06/29 10:35:57;;;;;;;32.13;15.63;;;;;;;21.66;100.00;101375.94;5022897;28;20030;-78
2023/06/29 10:38:33;;;;;;;28.75;15.68;;;;;;;21.72;100.00;101368.66;5022500;28;20049;-78
2023/06/29 10:40:59;;;;;;;29.40;15.25;;;;;;;22.00;100.00;101373.31;5008932;28;20089;-78
2023/06/29 10:43:26;;;;;;;27.50;15.00;;;;;;;22.16;100.00;101365.38;5008036;28;20076;-78
2023/06/29 10:45:51;;;;;;;32.20;16.83;;;;;;;22.07;100.00;101374.00;5026255;28;20037;-78
2023/06/29 10:48:17;;;;;;;32.58;17.23;;;;;;;21.92;100.00;101365.50;5024280;28;20026;-78
2023/06/29 10:50:43;;;;;;;28.40;16.52;;;;;;;21.67;100.00;101371.31;5021483;28;20080;-77
2023/06/29 10:53:14;;;;;;;33.05;17.40;;;;;;;21.63;100.00;101379.16;5020565;28;20033;-79
2023/06/29 10:55:42;;;;;;;31.63;18.25;;;;;;;21.64;100.00;101369.91;5004162;28;20025;-76
2023/06/29 10:58:14;;;;;;;;;;;;;;;21.39;100.00;101369.34;5023161;28;20097;-77